CSA12FR EDDN-LXGB
Flight info
| Callsign | CSA12FR |
|---|---|
| Flight time | N/A |
| Altitude | 33000 |
| Route | BOLSI1C/10 BOLSI Y166 DKB N869 NATOR DCT LUTIX DCT BENOT |
| Aircraft | A320/J-SCDFGHIRUWXYZ/LB1 |
Departure
| Time | 2026-04-29 21:21 |
|---|---|
| Airport | Nuremberg Airport (EDDN) |
Arrival
| Time | N/A |
|---|---|
| Airport | Gibraltar Airport (LXGB) |
| Time | Latitude | Longitude | Altitude | Speed | Heading |
|---|---|---|---|---|---|
| 2026-04-29 21:03 | 49.49547 | 11.07590 | 1032 ft | 0 kts | 189° |
| 2026-04-29 21:14 | 49.49552 | 11.07591 | 1033 ft | 8 kts | 189° |
| 2026-04-29 21:15 | 49.49594 | 11.07652 | 1037 ft | 8 kts | 267° |
| 2026-04-29 21:15 | 49.49594 | 11.07658 | 1037 ft | 0 kts | 279° |
| 2026-04-29 21:17 | 49.49597 | 11.07635 | 1037 ft | 8 kts | 280° |
| 2026-04-29 21:17 | 49.49608 | 11.07545 | 1036 ft | 17 kts | 281° |
| 2026-04-29 21:17 | 49.49635 | 11.07308 | 1035 ft | 15 kts | 279° |
| 2026-04-29 21:17 | 49.49661 | 11.07225 | 1035 ft | 8 kts | 342° |
| 2026-04-29 21:18 | 49.49713 | 11.07229 | 1036 ft | 9 kts | 346° |
| 2026-04-29 21:18 | 49.49746 | 11.07131 | 1035 ft | 0 kts | 279° |
| 2026-04-29 21:18 | 49.49750 | 11.07088 | 1034 ft | 0 kts | 278° |
| 2026-04-29 21:18 | 49.49755 | 11.07038 | 1033 ft | 0 kts | 277° |
| 2026-04-29 21:19 | 49.49762 | 11.06963 | 1032 ft | 15 kts | 278° |
| 2026-04-29 21:19 | 49.49786 | 11.06738 | 1029 ft | 27 kts | 281° |
| 2026-04-29 21:19 | 49.49809 | 11.06490 | 1030 ft | 25 kts | 277° |
| 2026-04-29 21:19 | 49.49838 | 11.06197 | 1030 ft | 30 kts | 279° |
| 2026-04-29 21:20 | 49.49879 | 11.05992 | 1034 ft | 12 kts | 325° |
| 2026-04-29 21:20 | 49.49976 | 11.05936 | 1033 ft | 18 kts | 354° |
| 2026-04-29 21:20 | 49.50040 | 11.06066 | 1034 ft | 18 kts | 94° |
| 2026-04-29 21:20 | 49.50020 | 11.06275 | 1033 ft | 33 kts | 99° |
| 2026-04-29 21:21 | 49.49935 | 11.07156 | 1040 ft | 129 kts | 99° |
| 2026-04-29 21:21 | 49.49761 | 11.08814 | 1412 ft | 171 kts | 99° |
| 2026-04-29 21:21 | 49.49525 | 11.10795 | 2045 ft | 209 kts | 99° |
| 2026-04-29 21:21 | 49.49264 | 11.13157 | 2806 ft | 225 kts | 98° |
| 2026-04-29 21:22 | 49.49034 | 11.15448 | 3138 ft | 224 kts | 98° |
| 2026-04-29 21:22 | 49.48795 | 11.18013 | 3617 ft | 254 kts | 98° |
| 2026-04-29 21:22 | 49.48504 | 11.20548 | 4088 ft | 223 kts | 105° |
| 2026-04-29 21:22 | 49.47901 | 11.22594 | 4589 ft | 214 kts | 120° |
| 2026-04-29 21:23 | 49.46782 | 11.24335 | 5143 ft | 258 kts | 145° |
| 2026-04-29 21:23 | 49.45065 | 11.25212 | 5660 ft | 265 kts | 172° |
| 2026-04-29 21:23 | 49.43181 | 11.25150 | 6186 ft | 276 kts | 183° |
| 2026-04-29 21:23 | 49.41262 | 11.24781 | 6713 ft | 280 kts | 185° |
| 2026-04-29 21:24 | 49.39315 | 11.24389 | 7197 ft | 284 kts | 185° |
| 2026-04-29 21:24 | 49.37344 | 11.24053 | 7698 ft | 287 kts | 183° |
| 2026-04-29 21:24 | 49.35345 | 11.23769 | 8213 ft | 289 kts | 182° |
| 2026-04-29 21:24 | 49.33335 | 11.23432 | 8724 ft | 293 kts | 192° |
| 2026-04-29 21:25 | 49.31487 | 11.22078 | 9267 ft | 300 kts | 218° |
| 2026-04-29 21:25 | 49.30157 | 11.19623 | 9779 ft | 302 kts | 244° |
| 2026-04-29 21:25 | 49.29489 | 11.16565 | 10324 ft | 311 kts | 260° |
| 2026-04-29 21:25 | 49.29078 | 11.13156 | 10749 ft | 336 kts | 262° |
| 2026-04-29 21:26 | 49.28666 | 11.09637 | 11113 ft | 342 kts | 261° |
| 2026-04-29 21:26 | 49.28175 | 11.06013 | 11497 ft | 344 kts | 259° |
| 2026-04-29 21:26 | 49.27629 | 11.02426 | 11887 ft | 347 kts | 258° |
| 2026-04-29 21:26 | 49.27047 | 10.98833 | 12271 ft | 349 kts | 258° |
| 2026-04-29 21:27 | 49.26455 | 10.95274 | 12654 ft | 351 kts | 258° |
| 2026-04-29 21:27 | 49.25844 | 10.91634 | 13043 ft | 353 kts | 258° |
| 2026-04-29 21:27 | 49.25228 | 10.87973 | 13438 ft | 356 kts | 258° |
| 2026-04-29 21:27 | 49.24609 | 10.84296 | 13846 ft | 357 kts | 258° |
| 2026-04-29 21:28 | 49.23985 | 10.80591 | 14244 ft | 360 kts | 258° |
| 2026-04-29 21:28 | 49.23358 | 10.76872 | 14604 ft | 362 kts | 258° |
| 2026-04-29 21:28 | 49.22724 | 10.73120 | 14963 ft | 365 kts | 258° |
| 2026-04-29 21:28 | 49.22087 | 10.69355 | 15336 ft | 367 kts | 258° |
| 2026-04-29 21:29 | 49.21443 | 10.65563 | 15701 ft | 370 kts | 258° |
| 2026-04-29 21:29 | 49.20794 | 10.61747 | 16075 ft | 372 kts | 258° |
| 2026-04-29 21:29 | 49.20140 | 10.57906 | 16456 ft | 375 kts | 258° |
| 2026-04-29 21:29 | 49.19479 | 10.54039 | 16832 ft | 377 kts | 258° |
| 2026-04-29 21:30 | 49.18821 | 10.50196 | 17215 ft | 380 kts | 259° |
| 2026-04-29 21:30 | 49.18150 | 10.46282 | 17599 ft | 382 kts | 259° |
| 2026-04-29 21:30 | 49.17472 | 10.42337 | 18087 ft | 385 kts | 259° |
| 2026-04-29 21:30 | 49.16786 | 10.38355 | 18635 ft | 389 kts | 259° |
| 2026-04-29 21:31 | 49.16091 | 10.34327 | 19097 ft | 393 kts | 259° |
| 2026-04-29 21:31 | 49.15389 | 10.30268 | 19572 ft | 397 kts | 259° |
| 2026-04-29 21:31 | 49.14595 | 10.26207 | 20049 ft | 403 kts | 252° |
| 2026-04-29 21:31 | 49.13347 | 10.22327 | 20535 ft | 410 kts | 240° |
| 2026-04-29 21:32 | 49.11645 | 10.18795 | 21035 ft | 416 kts | 232° |
| 2026-04-29 21:32 | 49.09809 | 10.15354 | 21543 ft | 420 kts | 232° |
| 2026-04-29 21:32 | 49.07962 | 10.11870 | 22061 ft | 424 kts | 232° |
| 2026-04-29 21:32 | 49.06102 | 10.08355 | 22582 ft | 428 kts | 232° |
| 2026-04-29 21:33 | 49.04247 | 10.04849 | 23117 ft | 432 kts | 232° |
| 2026-04-29 21:33 | 49.02352 | 10.01271 | 23664 ft | 436 kts | 232° |
| 2026-04-29 21:33 | 49.00439 | 9.97665 | 24177 ft | 440 kts | 232° |
| 2026-04-29 21:33 | 48.98513 | 9.94037 | 24627 ft | 442 kts | 232° |
| 2026-04-29 21:34 | 48.96568 | 9.90378 | 25112 ft | 445 kts | 232° |
| 2026-04-29 21:34 | 48.94612 | 9.86705 | 25594 ft | 448 kts | 231° |
| 2026-04-29 21:34 | 48.92646 | 9.83016 | 26085 ft | 451 kts | 231° |
| 2026-04-29 21:34 | 48.90670 | 9.79315 | 26584 ft | 454 kts | 231° |
| 2026-04-29 21:35 | 48.88675 | 9.75584 | 27089 ft | 456 kts | 231° |
| 2026-04-29 21:35 | 48.86664 | 9.71831 | 27611 ft | 459 kts | 231° |
| 2026-04-29 21:35 | 48.84643 | 9.68063 | 28122 ft | 462 kts | 231° |
| 2026-04-29 21:35 | 48.82601 | 9.64263 | 28667 ft | 465 kts | 231° |
| 2026-04-29 21:36 | 48.80549 | 9.60448 | 29205 ft | 468 kts | 231° |
| 2026-04-29 21:36 | 48.78484 | 9.56615 | 29768 ft | 471 kts | 231° |
| 2026-04-29 21:36 | 48.76404 | 9.52761 | 30332 ft | 473 kts | 230° |
| 2026-04-29 21:36 | 48.74316 | 9.48899 | 30822 ft | 475 kts | 231° |
| 2026-04-29 21:37 | 48.72216 | 9.45019 | 31321 ft | 476 kts | 231° |
| 2026-04-29 21:37 | 48.70118 | 9.41149 | 31821 ft | 474 kts | 231° |
| 2026-04-29 21:37 | 48.68035 | 9.37310 | 32333 ft | 472 kts | 231° |
| 2026-04-29 21:37 | 48.65953 | 9.33480 | 32858 ft | 470 kts | 232° |
| 2026-04-29 21:38 | 48.63912 | 9.29730 | 33366 ft | 467 kts | 232° |
| 2026-04-29 21:38 | 48.61856 | 9.25934 | 33926 ft | 465 kts | 234° |
| 2026-04-29 21:38 | 48.59971 | 9.21989 | 34445 ft | 463 kts | 237° |
| 2026-04-29 21:38 | 48.58109 | 9.18023 | 34921 ft | 460 kts | 237° |
| 2026-04-29 21:39 | 48.56261 | 9.14096 | 35398 ft | 458 kts | 237° |
| 2026-04-29 21:39 | 48.54416 | 9.10184 | 35891 ft | 456 kts | 237° |
| 2026-04-29 21:39 | 48.52578 | 9.06298 | 36390 ft | 453 kts | 237° |
| 2026-04-29 21:39 | 48.50750 | 9.02438 | 36793 ft | 452 kts | 237° |
| 2026-04-29 21:40 | 48.48922 | 8.98583 | 36905 ft | 451 kts | 237° |
| 2026-04-29 21:40 | 48.45278 | 8.90914 | 36912 ft | 449 kts | 237° |
| 2026-04-29 21:41 | 48.41637 | 8.83274 | 36909 ft | 449 kts | 237° |
| 2026-04-29 21:41 | 48.37992 | 8.75648 | 36909 ft | 448 kts | 237° |
| 2026-04-29 21:42 | 48.34340 | 8.68029 | 36906 ft | 448 kts | 237° |
| 2026-04-29 21:42 | 48.30711 | 8.60479 | 36909 ft | 448 kts | 237° |
| 2026-04-29 21:43 | 48.27062 | 8.52909 | 36909 ft | 447 kts | 237° |
| 2026-04-29 21:43 | 48.23404 | 8.45342 | 36905 ft | 447 kts | 237° |
| 2026-04-29 21:44 | 48.19751 | 8.37805 | 36904 ft | 447 kts | 237° |
| 2026-04-29 21:44 | 48.15523 | 8.30957 | 36901 ft | 451 kts | 221° |
| 2026-04-29 21:45 | 48.10318 | 8.25669 | 36898 ft | 453 kts | 214° |
| 2026-04-29 21:45 | 48.05022 | 8.20579 | 36893 ft | 453 kts | 214° |
| 2026-04-29 21:46 | 47.99713 | 8.15473 | 36894 ft | 453 kts | 215° |
| 2026-04-29 21:46 | 47.94404 | 8.10380 | 36887 ft | 454 kts | 215° |
| 2026-04-29 21:47 | 47.89125 | 8.05331 | 36882 ft | 453 kts | 215° |
| 2026-04-29 21:47 | 47.83832 | 8.00278 | 36877 ft | 454 kts | 216° |
| 2026-04-29 21:48 | 47.78498 | 7.95198 | 36867 ft | 455 kts | 216° |
| 2026-04-29 21:48 | 47.73246 | 7.90211 | 36855 ft | 449 kts | 215° |
| 2026-04-29 21:49 | 47.67994 | 7.85234 | 36846 ft | 447 kts | 215° |
| 2026-04-29 21:49 | 47.62733 | 7.80258 | 36872 ft | 455 kts | 215° |
| 2026-04-29 21:49 | 47.60054 | 7.77730 | 37126 ft | 457 kts | 215° |
| 2026-04-29 21:50 | 47.57370 | 7.75200 | 37520 ft | 457 kts | 215° |
| 2026-04-29 21:50 | 47.54684 | 7.72672 | 37788 ft | 459 kts | 215° |
| 2026-04-29 21:50 | 47.51963 | 7.70113 | 37838 ft | 467 kts | 215° |
| 2026-04-29 21:51 | 47.46398 | 7.64889 | 37836 ft | 478 kts | 215° |
| 2026-04-29 21:51 | 47.38029 | 7.57068 | 37833 ft | 475 kts | 215° |
| 2026-04-29 21:52 | 47.32438 | 7.51856 | 37814 ft | 475 kts | 215° |
| 2026-04-29 21:52 | 47.26852 | 7.46662 | 37806 ft | 475 kts | 216° |
| 2026-04-29 21:53 | 47.21276 | 7.41492 | 37805 ft | 473 kts | 216° |
| 2026-04-29 21:53 | 47.16054 | 7.35706 | 37805 ft | 467 kts | 228° |
| 2026-04-29 21:54 | 47.11843 | 7.28534 | 37805 ft | 462 kts | 236° |
| 2026-04-29 21:54 | 47.07857 | 7.21141 | 37808 ft | 462 kts | 236° |
| 2026-04-29 21:55 | 47.03602 | 7.14066 | 37805 ft | 465 kts | 229° |
| 2026-04-29 21:55 | 46.99006 | 7.07392 | 37789 ft | 464 kts | 229° |
| 2026-04-29 21:56 | 46.94471 | 7.00753 | 37783 ft | 463 kts | 229° |
| 2026-04-29 21:56 | 46.89925 | 6.94075 | 37778 ft | 462 kts | 229° |
| 2026-04-29 21:57 | 46.85392 | 6.87425 | 37775 ft | 461 kts | 229° |
| 2026-04-29 21:57 | 46.80862 | 6.80800 | 37780 ft | 460 kts | 229° |
| 2026-04-29 21:58 | 46.76340 | 6.74202 | 37779 ft | 460 kts | 229° |
| 2026-04-29 21:58 | 46.71805 | 6.67601 | 37778 ft | 460 kts | 229° |
| 2026-04-29 21:59 | 46.68041 | 6.62134 | 37780 ft | 460 kts | 229° |
| 2026-04-29 21:59 | 46.63507 | 6.55565 | 37778 ft | 460 kts | 229° |
| 2026-04-29 22:00 | 46.58965 | 6.49003 | 37773 ft | 460 kts | 229° |
| 2026-04-29 22:00 | 46.54418 | 6.42449 | 37777 ft | 460 kts | 229° |
| 2026-04-29 22:01 | 46.49866 | 6.35904 | 37763 ft | 460 kts | 229° |
| 2026-04-29 22:01 | 46.45300 | 6.29361 | 37760 ft | 461 kts | 229° |
| 2026-04-29 22:02 | 46.40725 | 6.22827 | 37770 ft | 461 kts | 229° |
| 2026-04-29 22:02 | 46.36185 | 6.16358 | 37761 ft | 461 kts | 229° |
| 2026-04-29 22:03 | 46.31603 | 6.09846 | 37757 ft | 461 kts | 228° |
| 2026-04-29 22:03 | 46.27027 | 6.03359 | 37741 ft | 461 kts | 228° |
| 2026-04-29 22:04 | 46.22437 | 5.96868 | 37755 ft | 462 kts | 228° |
| 2026-04-29 22:04 | 46.17845 | 5.90391 | 37747 ft | 461 kts | 228° |
| 2026-04-29 22:05 | 46.13250 | 5.83924 | 37753 ft | 462 kts | 228° |
| 2026-04-29 22:06 | 46.06357 | 5.74254 | 37766 ft | 462 kts | 227° |
| 2026-04-29 22:06 | 46.01753 | 5.67814 | 37754 ft | 461 kts | 227° |
| 2026-04-29 22:07 | 45.97155 | 5.61399 | 37744 ft | 461 kts | 227° |
| 2026-04-29 22:07 | 45.92581 | 5.55034 | 37739 ft | 459 kts | 227° |
| 2026-04-29 22:08 | 45.87987 | 5.48655 | 37737 ft | 459 kts | 227° |
| 2026-04-29 22:08 | 45.83397 | 5.42300 | 37720 ft | 458 kts | 227° |
| 2026-04-29 22:09 | 45.78815 | 5.35969 | 37722 ft | 457 kts | 227° |
| 2026-04-29 22:09 | 45.74246 | 5.29672 | 37722 ft | 455 kts | 227° |
| 2026-04-29 22:10 | 45.69681 | 5.23395 | 37730 ft | 454 kts | 227° |
| 2026-04-29 22:10 | 45.65124 | 5.17144 | 37717 ft | 453 kts | 227° |
| 2026-04-29 22:11 | 45.60584 | 5.10930 | 37715 ft | 451 kts | 226° |
| 2026-04-29 22:11 | 45.56052 | 5.04743 | 37721 ft | 450 kts | 226° |
| 2026-04-29 22:12 | 45.51603 | 4.98683 | 37728 ft | 448 kts | 226° |
| 2026-04-29 22:12 | 45.47166 | 4.92653 | 37718 ft | 447 kts | 226° |
| 2026-04-29 22:13 | 45.42662 | 4.86546 | 37724 ft | 447 kts | 226° |
| 2026-04-29 22:13 | 45.38164 | 4.80462 | 37723 ft | 446 kts | 226° |
| 2026-04-29 22:14 | 45.33658 | 4.74380 | 37718 ft | 446 kts | 226° |
| 2026-04-29 22:14 | 45.29164 | 4.68329 | 37726 ft | 446 kts | 226° |
| 2026-04-29 22:15 | 45.24655 | 4.62272 | 37725 ft | 446 kts | 226° |
| 2026-04-29 22:15 | 45.20149 | 4.56232 | 37722 ft | 445 kts | 225° |
| 2026-04-29 22:16 | 45.15638 | 4.50200 | 37722 ft | 445 kts | 225° |
| 2026-04-29 22:16 | 45.11160 | 4.44226 | 37727 ft | 445 kts | 225° |
| 2026-04-29 22:17 | 45.06650 | 4.38222 | 37737 ft | 445 kts | 225° |
| 2026-04-29 22:17 | 45.02128 | 4.32216 | 37733 ft | 445 kts | 225° |
| 2026-04-29 22:18 | 44.97742 | 4.26403 | 37736 ft | 445 kts | 225° |
| 2026-04-29 22:18 | 44.93228 | 4.20436 | 37746 ft | 444 kts | 225° |
| 2026-04-29 22:19 | 44.88744 | 4.14520 | 37733 ft | 445 kts | 225° |
| 2026-04-29 22:19 | 44.84228 | 4.08575 | 37746 ft | 444 kts | 225° |
| 2026-04-29 22:20 | 44.79701 | 4.02630 | 37739 ft | 444 kts | 225° |
| 2026-04-29 22:20 | 44.75209 | 3.96744 | 37736 ft | 444 kts | 225° |
| 2026-04-29 22:21 | 44.70685 | 3.90829 | 37733 ft | 444 kts | 224° |
| 2026-04-29 22:21 | 44.66157 | 3.84923 | 37733 ft | 444 kts | 224° |
| 2026-04-29 22:22 | 44.61629 | 3.79031 | 37736 ft | 443 kts | 224° |
| 2026-04-29 22:22 | 44.57109 | 3.73160 | 37739 ft | 443 kts | 224° |
| 2026-04-29 22:23 | 44.52587 | 3.67300 | 37745 ft | 442 kts | 224° |
| 2026-04-29 22:23 | 44.48066 | 3.61455 | 37742 ft | 442 kts | 224° |
| 2026-04-29 22:24 | 44.43542 | 3.55619 | 37734 ft | 442 kts | 224° |
| 2026-04-29 22:24 | 44.39055 | 3.49844 | 37731 ft | 441 kts | 224° |
| 2026-04-29 22:25 | 44.34531 | 3.44032 | 37742 ft | 441 kts | 224° |
| 2026-04-29 22:25 | 44.30003 | 3.38229 | 37736 ft | 440 kts | 224° |
| 2026-04-29 22:26 | 44.25475 | 3.32438 | 37725 ft | 441 kts | 224° |
| 2026-04-29 22:26 | 44.20979 | 3.26701 | 37731 ft | 441 kts | 224° |
| 2026-04-29 22:27 | 44.16447 | 3.20931 | 37719 ft | 441 kts | 224° |
| 2026-04-29 22:27 | 44.11909 | 3.15165 | 37718 ft | 441 kts | 223° |
| 2026-04-29 22:28 | 44.07373 | 3.09415 | 37708 ft | 441 kts | 223° |
| 2026-04-29 22:28 | 44.02835 | 3.03674 | 37705 ft | 441 kts | 223° |
| 2026-04-29 22:29 | 43.99062 | 2.98911 | 37707 ft | 441 kts | 223° |
| 2026-04-29 22:29 | 43.93781 | 2.92259 | 37711 ft | 440 kts | 223° |
| 2026-04-29 22:30 | 43.89238 | 2.86548 | 37711 ft | 440 kts | 223° |
| 2026-04-29 22:30 | 43.84694 | 2.80850 | 37690 ft | 440 kts | 223° |
| 2026-04-29 22:31 | 43.80154 | 2.75168 | 37682 ft | 440 kts | 223° |
| 2026-04-29 22:31 | 43.75611 | 2.69494 | 37682 ft | 439 kts | 223° |
| 2026-04-29 22:32 | 43.71064 | 2.63828 | 37663 ft | 439 kts | 223° |
| 2026-04-29 22:32 | 43.66519 | 2.58177 | 37651 ft | 439 kts | 223° |
| 2026-04-29 22:33 | 43.62004 | 2.52574 | 37641 ft | 439 kts | 223° |
| 2026-04-29 22:33 | 43.57446 | 2.46930 | 37651 ft | 440 kts | 223° |
| 2026-04-29 22:34 | 43.52877 | 2.41285 | 37636 ft | 440 kts | 223° |
| 2026-04-29 22:34 | 43.48318 | 2.35664 | 37656 ft | 440 kts | 223° |
| 2026-04-29 22:35 | 43.43766 | 2.30064 | 37646 ft | 441 kts | 223° |
| 2026-04-29 22:35 | 43.39190 | 2.24446 | 37641 ft | 440 kts | 223° |
| 2026-04-29 22:36 | 43.34619 | 2.18845 | 37661 ft | 440 kts | 223° |
| 2026-04-29 22:36 | 43.30040 | 2.13247 | 37661 ft | 440 kts | 223° |
| 2026-04-29 22:37 | 43.25467 | 2.07668 | 37662 ft | 439 kts | 223° |
| 2026-04-29 22:37 | 43.20894 | 2.02100 | 37654 ft | 439 kts | 223° |
| 2026-04-29 22:38 | 43.16319 | 1.96541 | 37669 ft | 439 kts | 223° |
| 2026-04-29 22:38 | 43.11769 | 1.91024 | 37645 ft | 440 kts | 223° |
| 2026-04-29 22:39 | 43.07186 | 1.85479 | 37641 ft | 440 kts | 223° |
| 2026-04-29 22:39 | 43.02595 | 1.79936 | 37656 ft | 440 kts | 222° |
| 2026-04-29 22:40 | 42.98769 | 1.75324 | 37644 ft | 440 kts | 222° |
| 2026-04-29 22:40 | 42.93422 | 1.68894 | 37650 ft | 441 kts | 222° |
| 2026-04-29 22:41 | 42.88812 | 1.63362 | 37657 ft | 441 kts | 222° |
| 2026-04-29 22:41 | 42.84192 | 1.57830 | 37665 ft | 442 kts | 222° |
| 2026-04-29 22:42 | 42.79573 | 1.52311 | 37672 ft | 441 kts | 222° |
| 2026-04-29 22:42 | 42.74954 | 1.46804 | 37681 ft | 441 kts | 222° |
| 2026-04-29 22:43 | 42.70331 | 1.41302 | 37684 ft | 441 kts | 222° |
| 2026-04-29 22:43 | 42.65704 | 1.35807 | 37702 ft | 442 kts | 222° |
| 2026-04-29 22:44 | 42.61077 | 1.30323 | 37704 ft | 441 kts | 222° |
| 2026-04-29 22:44 | 42.56484 | 1.24891 | 37710 ft | 440 kts | 222° |
| 2026-04-29 22:45 | 42.51866 | 1.19440 | 37712 ft | 441 kts | 222° |
| 2026-04-29 22:45 | 42.47236 | 1.13987 | 37715 ft | 440 kts | 222° |
| 2026-04-29 22:46 | 42.43362 | 1.09432 | 37719 ft | 440 kts | 222° |
| 2026-04-29 22:46 | 42.38775 | 1.04049 | 37710 ft | 439 kts | 222° |
| 2026-04-29 22:47 | 42.34146 | 0.98627 | 37716 ft | 440 kts | 222° |
| 2026-04-29 22:47 | 42.29518 | 0.93217 | 37706 ft | 440 kts | 222° |
| 2026-04-29 22:48 | 42.24885 | 0.87812 | 37701 ft | 439 kts | 222° |
| 2026-04-29 22:48 | 42.20256 | 0.82424 | 37701 ft | 439 kts | 222° |
| 2026-04-29 22:49 | 42.15620 | 0.77038 | 37696 ft | 439 kts | 222° |
| 2026-04-29 22:49 | 42.10986 | 0.71665 | 37693 ft | 440 kts | 222° |
| 2026-04-29 22:50 | 42.06350 | 0.66300 | 37686 ft | 439 kts | 222° |
| 2026-04-29 22:50 | 42.01712 | 0.60943 | 37678 ft | 440 kts | 222° |
| 2026-04-29 22:51 | 41.97086 | 0.55612 | 37676 ft | 440 kts | 222° |
| 2026-04-29 22:51 | 41.90110 | 0.47592 | 37672 ft | 440 kts | 222° |
| 2026-04-29 22:52 | 41.85453 | 0.42251 | 37674 ft | 440 kts | 222° |
| 2026-04-29 22:52 | 41.80791 | 0.36915 | 37670 ft | 441 kts | 222° |
| 2026-04-29 22:53 | 41.76119 | 0.31578 | 37668 ft | 441 kts | 222° |
| 2026-04-29 22:53 | 41.71470 | 0.26277 | 37667 ft | 442 kts | 221° |
| 2026-04-29 22:54 | 41.66786 | 0.20948 | 37668 ft | 442 kts | 221° |
| 2026-04-29 22:54 | 41.62098 | 0.15623 | 37662 ft | 442 kts | 221° |
| 2026-04-29 22:55 | 41.57403 | 0.10302 | 37658 ft | 442 kts | 221° |
| 2026-04-29 22:55 | 41.52707 | 0.04990 | 37649 ft | 442 kts | 221° |
| 2026-04-29 22:56 | 41.48007 | -0.00316 | 37653 ft | 442 kts | 221° |
| 2026-04-29 22:56 | 41.43306 | -0.05612 | 37646 ft | 443 kts | 221° |
| 2026-04-29 22:57 | 41.38592 | -0.10913 | 37648 ft | 442 kts | 221° |
| 2026-04-29 22:57 | 41.33912 | -0.16165 | 37646 ft | 443 kts | 221° |
| 2026-04-29 22:58 | 41.29185 | -0.21459 | 37643 ft | 443 kts | 221° |
| 2026-04-29 22:58 | 41.24461 | -0.26739 | 37639 ft | 443 kts | 221° |
| 2026-04-29 22:59 | 41.19735 | -0.32011 | 37641 ft | 444 kts | 221° |
| 2026-04-29 22:59 | 41.15000 | -0.37284 | 37641 ft | 444 kts | 221° |
| 2026-04-29 23:00 | 41.10272 | -0.42538 | 37637 ft | 443 kts | 221° |
| 2026-04-29 23:00 | 41.05566 | -0.47758 | 37641 ft | 444 kts | 221° |
| 2026-04-29 23:01 | 41.00799 | -0.53034 | 37644 ft | 443 kts | 221° |
| 2026-04-29 23:01 | 40.96090 | -0.58238 | 37652 ft | 443 kts | 221° |
| 2026-04-29 23:02 | 40.91354 | -0.63460 | 37661 ft | 443 kts | 221° |
| 2026-04-29 23:02 | 40.86617 | -0.68674 | 37660 ft | 443 kts | 220° |
| 2026-04-29 23:03 | 40.81878 | -0.73879 | 37662 ft | 443 kts | 220° |
| 2026-04-29 23:03 | 40.77145 | -0.79069 | 37668 ft | 442 kts | 220° |
| 2026-04-29 23:04 | 40.72414 | -0.84245 | 37669 ft | 442 kts | 220° |
| 2026-04-29 23:04 | 40.67685 | -0.89410 | 37672 ft | 441 kts | 220° |
| 2026-04-29 23:05 | 40.62980 | -0.94539 | 37682 ft | 441 kts | 220° |
| 2026-04-29 23:05 | 40.58246 | -0.99690 | 37699 ft | 441 kts | 220° |
| 2026-04-29 23:06 | 40.53519 | -1.04823 | 37715 ft | 440 kts | 220° |
| 2026-04-29 23:06 | 40.48795 | -1.09943 | 37716 ft | 440 kts | 220° |
| 2026-04-29 23:07 | 40.44071 | -1.15055 | 37740 ft | 439 kts | 220° |
| 2026-04-29 23:07 | 40.39356 | -1.20145 | 37728 ft | 439 kts | 220° |
| 2026-04-29 23:08 | 40.34668 | -1.25198 | 37714 ft | 439 kts | 220° |
| 2026-04-29 23:08 | 40.29953 | -1.30272 | 37728 ft | 438 kts | 220° |
| 2026-04-29 23:09 | 40.25236 | -1.35337 | 37717 ft | 438 kts | 220° |
| 2026-04-29 23:09 | 40.20517 | -1.40394 | 37711 ft | 438 kts | 220° |
| 2026-04-29 23:10 | 40.15802 | -1.45438 | 37710 ft | 437 kts | 220° |
| 2026-04-29 23:10 | 40.11115 | -1.50443 | 37692 ft | 437 kts | 220° |
| 2026-04-29 23:11 | 40.06397 | -1.55472 | 37707 ft | 437 kts | 220° |
| 2026-04-29 23:11 | 40.01688 | -1.60481 | 37709 ft | 437 kts | 220° |
| 2026-04-29 23:12 | 39.97102 | -1.65352 | 37695 ft | 436 kts | 220° |
| 2026-04-29 23:12 | 39.92404 | -1.70332 | 37697 ft | 435 kts | 220° |
| 2026-04-29 23:13 | 39.87704 | -1.75306 | 37690 ft | 435 kts | 220° |
| 2026-04-29 23:13 | 39.83008 | -1.80265 | 37695 ft | 435 kts | 220° |
| 2026-04-29 23:14 | 39.78300 | -1.85229 | 37699 ft | 435 kts | 220° |
| 2026-04-29 23:14 | 39.73598 | -1.90176 | 37693 ft | 435 kts | 220° |
| 2026-04-29 23:15 | 39.68891 | -1.95119 | 37688 ft | 435 kts | 220° |
| 2026-04-29 23:15 | 39.64191 | -2.00048 | 37693 ft | 434 kts | 220° |
| 2026-04-29 23:16 | 39.59489 | -2.04969 | 37687 ft | 434 kts | 220° |
| 2026-04-29 23:16 | 39.54788 | -2.09880 | 37690 ft | 434 kts | 220° |
| 2026-04-29 23:17 | 39.50085 | -2.14785 | 37683 ft | 434 kts | 220° |
| 2026-04-29 23:17 | 39.45411 | -2.19650 | 37685 ft | 434 kts | 220° |
| 2026-04-29 23:18 | 39.40711 | -2.24535 | 37683 ft | 433 kts | 220° |
| 2026-04-29 23:18 | 39.36015 | -2.29406 | 37684 ft | 433 kts | 220° |
| 2026-04-29 23:19 | 39.31313 | -2.34275 | 37681 ft | 433 kts | 220° |
| 2026-04-29 23:19 | 39.26614 | -2.39133 | 37682 ft | 432 kts | 220° |
| 2026-04-29 23:20 | 39.21921 | -2.43975 | 37682 ft | 432 kts | 220° |
| 2026-04-29 23:20 | 39.17227 | -2.48810 | 37685 ft | 432 kts | 220° |
| 2026-04-29 23:21 | 39.12531 | -2.53639 | 37679 ft | 431 kts | 220° |
| 2026-04-29 23:21 | 39.07874 | -2.58419 | 37679 ft | 431 kts | 220° |
| 2026-04-29 23:22 | 39.03185 | -2.63225 | 37679 ft | 430 kts | 220° |
| 2026-04-29 23:22 | 38.98505 | -2.68011 | 37680 ft | 429 kts | 220° |
| 2026-04-29 23:23 | 38.93825 | -2.72790 | 37676 ft | 429 kts | 220° |
| 2026-04-29 23:23 | 38.89152 | -2.77553 | 37674 ft | 429 kts | 220° |
| 2026-04-29 23:24 | 38.84474 | -2.82314 | 37671 ft | 429 kts | 220° |
| 2026-04-29 23:24 | 38.79801 | -2.87061 | 37677 ft | 428 kts | 220° |
| 2026-04-29 23:25 | 38.75124 | -2.91803 | 37677 ft | 428 kts | 220° |
| 2026-04-29 23:25 | 38.70452 | -2.96533 | 37678 ft | 428 kts | 220° |
| 2026-04-29 23:26 | 38.65776 | -3.01259 | 37675 ft | 428 kts | 220° |
| 2026-04-29 23:26 | 38.61108 | -3.05963 | 37582 ft | 423 kts | 222° |
| 2026-04-29 23:27 | 38.56541 | -3.10548 | 37680 ft | 417 kts | 222° |
| 2026-04-29 23:27 | 38.51983 | -3.15137 | 37683 ft | 417 kts | 222° |
| 2026-04-29 23:28 | 38.47439 | -3.19700 | 37682 ft | 418 kts | 222° |
| 2026-04-29 23:28 | 38.42868 | -3.24281 | 37682 ft | 418 kts | 222° |
| 2026-04-29 23:29 | 38.38284 | -3.28868 | 37672 ft | 419 kts | 222° |
| 2026-04-29 23:29 | 38.33706 | -3.33441 | 37682 ft | 419 kts | 222° |
| 2026-04-29 23:30 | 38.29110 | -3.38026 | 37670 ft | 419 kts | 222° |
| 2026-04-29 23:30 | 38.24516 | -3.42601 | 37677 ft | 420 kts | 222° |
| 2026-04-29 23:31 | 38.19909 | -3.47181 | 37678 ft | 421 kts | 222° |
| 2026-04-29 23:31 | 38.15322 | -3.51734 | 37675 ft | 421 kts | 222° |
| 2026-04-29 23:32 | 38.10693 | -3.56320 | 37677 ft | 421 kts | 222° |
| 2026-04-29 23:32 | 38.06066 | -3.60897 | 37680 ft | 422 kts | 222° |
| 2026-04-29 23:33 | 38.02213 | -3.64703 | 37679 ft | 422 kts | 221° |
| 2026-04-29 23:33 | 37.97572 | -3.69280 | 37679 ft | 422 kts | 221° |
| 2026-04-29 23:34 | 37.92933 | -3.73848 | 37679 ft | 423 kts | 221° |
| 2026-04-29 23:34 | 37.88283 | -3.78418 | 37680 ft | 423 kts | 221° |
| 2026-04-29 23:35 | 37.83628 | -3.82986 | 37683 ft | 423 kts | 221° |
| 2026-04-29 23:35 | 37.79006 | -3.87514 | 37684 ft | 423 kts | 221° |
| 2026-04-29 23:36 | 37.74345 | -3.92073 | 37684 ft | 423 kts | 221° |
| 2026-04-29 23:36 | 37.69679 | -3.96629 | 37687 ft | 424 kts | 221° |
| 2026-04-29 23:37 | 37.65016 | -4.01175 | 37687 ft | 423 kts | 221° |
| 2026-04-29 23:37 | 37.60346 | -4.05721 | 37690 ft | 424 kts | 221° |
| 2026-04-29 23:38 | 37.55673 | -4.10261 | 37687 ft | 424 kts | 221° |
| 2026-04-29 23:38 | 37.51018 | -4.14776 | 37689 ft | 424 kts | 221° |
| 2026-04-29 23:39 | 37.46334 | -4.19314 | 37688 ft | 424 kts | 221° |
| 2026-04-29 23:39 | 37.41648 | -4.23845 | 37689 ft | 424 kts | 221° |
| 2026-04-29 23:40 | 37.36964 | -4.28366 | 37692 ft | 425 kts | 221° |
| 2026-04-29 23:40 | 37.32300 | -4.32861 | 37695 ft | 425 kts | 221° |
| 2026-04-29 23:41 | 37.27595 | -4.37388 | 37696 ft | 425 kts | 221° |
| 2026-04-29 23:41 | 37.22891 | -4.41908 | 37696 ft | 426 kts | 220° |
| 2026-04-29 23:42 | 37.18174 | -4.46432 | 37698 ft | 426 kts | 220° |
| 2026-04-29 23:42 | 37.13482 | -4.50925 | 37694 ft | 427 kts | 220° |
| 2026-04-29 23:43 | 37.08748 | -4.55451 | 37701 ft | 427 kts | 220° |
| 2026-04-29 23:43 | 37.04015 | -4.59969 | 37696 ft | 427 kts | 220° |
| 2026-04-29 23:44 | 36.99282 | -4.64479 | 37690 ft | 428 kts | 220° |
| 2026-04-29 23:44 | 36.94545 | -4.68986 | 37687 ft | 428 kts | 220° |
| 2026-04-29 23:45 | 36.89831 | -4.73464 | 37687 ft | 428 kts | 220° |
| 2026-04-29 23:45 | 36.85083 | -4.77967 | 37689 ft | 428 kts | 220° |
| 2026-04-29 23:46 | 36.80333 | -4.82464 | 37688 ft | 428 kts | 220° |
| 2026-04-29 23:46 | 36.75577 | -4.86960 | 37689 ft | 427 kts | 220° |
| 2026-04-29 23:47 | 36.70864 | -4.91410 | 37691 ft | 429 kts | 220° |
| 2026-04-29 23:47 | 36.66104 | -4.95896 | 37693 ft | 429 kts | 220° |
| 2026-04-29 23:48 | 36.61343 | -5.00374 | 37700 ft | 429 kts | 220° |
| 2026-04-29 23:48 | 36.56576 | -5.04852 | 37696 ft | 428 kts | 220° |
| 2026-04-29 23:49 | 36.51816 | -5.09318 | 37696 ft | 429 kts | 220° |
| 2026-04-29 23:49 | 36.47056 | -5.13775 | 37696 ft | 429 kts | 220° |
| 2026-04-29 23:50 | 36.42286 | -5.18236 | 37704 ft | 429 kts | 220° |
| 2026-04-29 23:51 | 36.35150 | -5.24901 | 37705 ft | 429 kts | 219° |
| 2026-04-29 23:51 | 36.30363 | -5.29363 | 37693 ft | 430 kts | 219° |
| 2026-04-29 23:52 | 36.25581 | -5.33814 | 37704 ft | 430 kts | 219° |
| 2026-04-29 23:52 | 36.20792 | -5.38264 | 37692 ft | 430 kts | 219° |
| 2026-04-29 23:53 | 36.16025 | -5.42687 | 37697 ft | 430 kts | 219° |
| 2026-04-29 23:53 | 36.11229 | -5.47130 | 37694 ft | 430 kts | 219° |
| 2026-04-29 23:54 | 36.05851 | -5.50427 | 37698 ft | 440 kts | 197° |
| 2026-04-29 23:54 | 36.02795 | -5.50937 | 37703 ft | 447 kts | 185° |
| 2026-04-29 23:54 | 35.99667 | -5.50622 | 37698 ft | 454 kts | 173° |
| 2026-04-29 23:54 | 35.96622 | -5.49486 | 37700 ft | 462 kts | 161° |
| 2026-04-29 23:55 | 35.93789 | -5.47566 | 37700 ft | 469 kts | 149° |
| 2026-04-29 23:55 | 35.91294 | -5.44933 | 37694 ft | 477 kts | 137° |
| 2026-04-29 23:55 | 35.89249 | -5.41682 | 37699 ft | 483 kts | 125° |
| 2026-04-29 23:55 | 35.87753 | -5.37949 | 37693 ft | 489 kts | 113° |
| 2026-04-29 23:56 | 35.86875 | -5.33881 | 37684 ft | 493 kts | 101° |
| 2026-04-29 23:56 | 35.86658 | -5.29700 | 37684 ft | 497 kts | 89° |
| 2026-04-29 23:56 | 35.87112 | -5.25471 | 37687 ft | 499 kts | 77° |
| 2026-04-29 23:56 | 35.88227 | -5.21419 | 37696 ft | 499 kts | 65° |
| 2026-04-29 23:57 | 35.89958 | -5.17716 | 37694 ft | 498 kts | 52° |
| 2026-04-29 23:57 | 35.92236 | -5.14508 | 37695 ft | 496 kts | 40° |
| 2026-04-29 23:57 | 35.94953 | -5.11935 | 37696 ft | 492 kts | 28° |
| 2026-04-29 23:57 | 35.98007 | -5.10086 | 37695 ft | 487 kts | 16° |
| 2026-04-29 23:58 | 36.01259 | -5.09009 | 37696 ft | 480 kts | 4° |
| 2026-04-29 23:58 | 36.04567 | -5.08766 | 37698 ft | 473 kts | 352° |
| 2026-04-29 23:58 | 36.07791 | -5.09356 | 37703 ft | 465 kts | 340° |
| 2026-04-29 23:58 | 36.10796 | -5.10740 | 37703 ft | 457 kts | 328° |
| 2026-04-29 23:59 | 36.13442 | -5.12838 | 37694 ft | 449 kts | 316° |
| 2026-04-29 23:59 | 36.15604 | -5.15518 | 37702 ft | 442 kts | 304° |
| 2026-04-29 23:59 | 36.17232 | -5.18701 | 37697 ft | 436 kts | 291° |
| 2026-04-29 23:59 | 36.18232 | -5.22211 | 37693 ft | 431 kts | 279° |
| 2026-04-30 00:00 | 36.18560 | -5.25874 | 37694 ft | 427 kts | 267° |
| 2026-04-30 00:00 | 36.18205 | -5.29512 | 37702 ft | 425 kts | 255° |
| 2026-04-30 00:00 | 36.17219 | -5.32963 | 37698 ft | 425 kts | 247° |
| 2026-04-30 00:01 | 36.15007 | -5.39698 | 37697 ft | 425 kts | 248° |
| 2026-04-30 00:01 | 36.12793 | -5.46475 | 37697 ft | 425 kts | 248° |
| 2026-04-30 00:02 | 36.10579 | -5.53257 | 37703 ft | 425 kts | 248° |
| 2026-04-30 00:02 | 36.08359 | -5.60046 | 37706 ft | 425 kts | 248° |
| 2026-04-30 00:03 | 36.06140 | -5.66832 | 37706 ft | 426 kts | 248° |
| 2026-04-30 00:03 | 36.03921 | -5.73617 | 37709 ft | 426 kts | 248° |
| 2026-04-30 00:04 | 36.01716 | -5.80359 | 37703 ft | 426 kts | 248° |
| 2026-04-30 00:04 | 35.99497 | -5.87146 | 37706 ft | 426 kts | 248° |
| 2026-04-30 00:05 | 35.97279 | -5.93935 | 37700 ft | 426 kts | 248° |
| 2026-04-30 00:05 | 35.95063 | -6.00719 | 37695 ft | 426 kts | 248° |
| 2026-04-30 00:06 | 35.92858 | -6.07461 | 37696 ft | 426 kts | 248° |
| 2026-04-30 00:06 | 35.90639 | -6.14249 | 37695 ft | 426 kts | 248° |
| 2026-04-30 00:07 | 35.88422 | -6.21034 | 37692 ft | 426 kts | 248° |
| 2026-04-30 00:07 | 35.86208 | -6.27816 | 37693 ft | 426 kts | 248° |
| 2026-04-30 00:08 | 35.83993 | -6.34606 | 37691 ft | 426 kts | 248° |
| 2026-04-30 00:08 | 35.81779 | -6.41394 | 37691 ft | 426 kts | 248° |
| 2026-04-30 00:09 | 35.79585 | -6.48126 | 37692 ft | 426 kts | 248° |
| 2026-04-30 00:09 | 35.77376 | -6.54901 | 37698 ft | 426 kts | 248° |
| 2026-04-30 00:10 | 35.75165 | -6.61676 | 37695 ft | 426 kts | 248° |
| 2026-04-30 00:10 | 35.72956 | -6.68447 | 37698 ft | 426 kts | 248° |
| 2026-04-30 00:11 | 35.70746 | -6.75222 | 37697 ft | 426 kts | 248° |
| 2026-04-30 00:11 | 35.68537 | -6.81995 | 37702 ft | 426 kts | 248° |
| 2026-04-30 00:12 | 35.66332 | -6.88762 | 37705 ft | 426 kts | 248° |
| 2026-04-30 00:12 | 35.64131 | -6.95529 | 37713 ft | 426 kts | 248° |
| 2026-04-30 00:13 | 35.61945 | -7.02256 | 37708 ft | 426 kts | 248° |
| 2026-04-30 00:13 | 35.59747 | -7.09032 | 37709 ft | 426 kts | 247° |
| 2026-04-30 00:14 | 35.57550 | -7.15808 | 37710 ft | 426 kts | 247° |
| 2026-04-30 00:14 | 35.55361 | -7.22568 | 37708 ft | 426 kts | 247° |
| 2026-04-30 00:15 | 35.53172 | -7.29334 | 37706 ft | 426 kts | 247° |
| 2026-04-30 00:15 | 35.50988 | -7.36089 | 37701 ft | 426 kts | 247° |
| 2026-04-30 00:16 | 35.48802 | -7.42862 | 37705 ft | 426 kts | 247° |
| 2026-04-30 00:16 | 35.46635 | -7.49586 | 37712 ft | 426 kts | 247° |
| 2026-04-30 00:17 | 35.44460 | -7.56346 | 37709 ft | 426 kts | 247° |
| 2026-04-30 00:17 | 35.42289 | -7.63102 | 37708 ft | 426 kts | 247° |
| 2026-04-30 00:18 | 35.40118 | -7.69861 | 37704 ft | 426 kts | 247° |
| 2026-04-30 00:18 | 35.37947 | -7.76627 | 37705 ft | 426 kts | 247° |
| 2026-04-30 00:19 | 35.35779 | -7.83397 | 37709 ft | 426 kts | 247° |
| 2026-04-30 00:19 | 35.33627 | -7.90121 | 37704 ft | 426 kts | 247° |
| 2026-04-30 00:20 | 35.31466 | -7.96887 | 37706 ft | 427 kts | 247° |
| 2026-04-30 00:20 | 35.29309 | -8.03649 | 37703 ft | 427 kts | 247° |
| 2026-04-30 00:21 | 35.27516 | -8.09278 | 37708 ft | 427 kts | 247° |
| 2026-04-30 00:21 | 35.25359 | -8.16053 | 37714 ft | 427 kts | 247° |
| 2026-04-30 00:22 | 35.22853 | -8.23933 | 37712 ft | 427 kts | 247° |
| 2026-04-30 00:22 | 35.21065 | -8.29562 | 37717 ft | 427 kts | 247° |
| 2026-04-30 00:23 | 35.18916 | -8.36333 | 37700 ft | 427 kts | 247° |
| 2026-04-30 00:23 | 35.16769 | -8.43106 | 37707 ft | 427 kts | 247° |
| 2026-04-30 00:24 | 35.14625 | -8.49874 | 37705 ft | 427 kts | 247° |
| 2026-04-30 00:24 | 35.12479 | -8.56656 | 37704 ft | 427 kts | 247° |
| 2026-04-30 00:25 | 35.10337 | -8.63434 | 37704 ft | 427 kts | 247° |
| 2026-04-30 00:25 | 35.08198 | -8.70210 | 37706 ft | 428 kts | 247° |
| 2026-04-30 00:26 | 35.06059 | -8.76996 | 37706 ft | 428 kts | 247° |
| 2026-04-30 00:26 | 35.03932 | -8.83750 | 37709 ft | 428 kts | 247° |
| 2026-04-30 00:27 | 35.01799 | -8.90534 | 37708 ft | 429 kts | 247° |
| 2026-04-30 00:27 | 34.99667 | -8.97324 | 37706 ft | 429 kts | 247° |
| 2026-04-30 00:28 | 34.97538 | -9.04115 | 37709 ft | 429 kts | 247° |
| 2026-04-30 00:28 | 34.95405 | -9.10928 | 37709 ft | 429 kts | 247° |
| 2026-04-30 00:29 | 34.93294 | -9.17679 | 37708 ft | 429 kts | 247° |
| 2026-04-30 00:29 | 34.91169 | -9.24484 | 37712 ft | 430 kts | 247° |
| 2026-04-30 00:30 | 34.89046 | -9.31293 | 37713 ft | 430 kts | 247° |
| 2026-04-30 00:30 | 34.86926 | -9.38099 | 37712 ft | 430 kts | 246° |
| 2026-04-30 00:31 | 34.84804 | -9.44915 | 37711 ft | 430 kts | 246° |
| 2026-04-30 00:31 | 34.82686 | -9.51731 | 37709 ft | 430 kts | 246° |
| 2026-04-30 00:32 | 34.80569 | -9.58547 | 37709 ft | 431 kts | 246° |
| 2026-04-30 00:32 | 34.78462 | -9.65334 | 37709 ft | 431 kts | 246° |
| 2026-04-30 00:33 | 34.76346 | -9.72157 | 37710 ft | 431 kts | 246° |
| 2026-04-30 00:33 | 34.74227 | -9.78987 | 37710 ft | 431 kts | 246° |
| 2026-04-30 00:34 | 34.72109 | -9.85822 | 37713 ft | 432 kts | 246° |
| 2026-04-30 00:34 | 34.69991 | -9.92661 | 37709 ft | 432 kts | 246° |
| 2026-04-30 00:35 | 34.67882 | -9.99465 | 37709 ft | 433 kts | 246° |
| 2026-04-30 00:35 | 34.65749 | -10.06353 | 37711 ft | 433 kts | 246° |
| 2026-04-30 00:36 | 34.63628 | -10.13199 | 37711 ft | 433 kts | 246° |
| 2026-04-30 00:36 | 34.61519 | -10.20009 | 37710 ft | 433 kts | 246° |
| 2026-04-30 00:37 | 34.59395 | -10.26866 | 37712 ft | 434 kts | 246° |
| 2026-04-30 00:37 | 34.57266 | -10.33731 | 37712 ft | 434 kts | 246° |
| 2026-04-30 00:38 | 34.55138 | -10.40591 | 37713 ft | 434 kts | 246° |
| 2026-04-30 00:38 | 34.53009 | -10.47451 | 37710 ft | 435 kts | 246° |
| 2026-04-30 00:39 | 34.50890 | -10.54275 | 37715 ft | 435 kts | 246° |
| 2026-04-30 00:39 | 34.48756 | -10.61141 | 37714 ft | 435 kts | 246° |
| 2026-04-30 00:40 | 34.46620 | -10.68010 | 37721 ft | 436 kts | 246° |
| 2026-04-30 00:40 | 34.44479 | -10.74887 | 37714 ft | 436 kts | 246° |
| 2026-04-30 00:41 | 34.42340 | -10.81753 | 37714 ft | 436 kts | 246° |
| 2026-04-30 00:41 | 34.40195 | -10.88632 | 37719 ft | 436 kts | 246° |
| 2026-04-30 00:42 | 34.38050 | -10.95502 | 37717 ft | 437 kts | 246° |
| 2026-04-30 00:42 | 34.35911 | -11.02342 | 37718 ft | 437 kts | 246° |
| 2026-04-30 00:43 | 34.33758 | -11.09215 | 37718 ft | 437 kts | 246° |
| 2026-04-30 00:43 | 34.31599 | -11.16092 | 37721 ft | 437 kts | 246° |
| 2026-04-30 00:44 | 34.29435 | -11.22973 | 37721 ft | 438 kts | 246° |
| 2026-04-30 00:44 | 34.27264 | -11.29859 | 37722 ft | 438 kts | 246° |
| 2026-04-30 00:45 | 34.25104 | -11.36693 | 37719 ft | 438 kts | 246° |
| 2026-04-30 00:45 | 34.22925 | -11.43570 | 37716 ft | 438 kts | 246° |
| 2026-04-30 00:46 | 34.20742 | -11.50442 | 37721 ft | 438 kts | 246° |
| 2026-04-30 00:46 | 34.18554 | -11.57311 | 37721 ft | 438 kts | 246° |
| 2026-04-30 00:47 | 34.16360 | -11.64183 | 37719 ft | 438 kts | 246° |
| 2026-04-30 00:47 | 34.14159 | -11.71059 | 37721 ft | 438 kts | 246° |
| 2026-04-30 00:48 | 34.11957 | -11.77918 | 37720 ft | 438 kts | 246° |
| 2026-04-30 00:48 | 34.09763 | -11.84735 | 37727 ft | 438 kts | 246° |
| 2026-04-30 00:49 | 34.07553 | -11.91590 | 37729 ft | 438 kts | 246° |
| 2026-04-30 00:49 | 34.05339 | -11.98440 | 37726 ft | 438 kts | 246° |
| 2026-04-30 00:50 | 34.03122 | -12.05286 | 37724 ft | 439 kts | 246° |
| 2026-04-30 00:50 | 34.00901 | -12.12128 | 37723 ft | 438 kts | 246° |
| 2026-04-30 00:51 | 33.98675 | -12.18973 | 37733 ft | 438 kts | 246° |
| 2026-04-30 00:51 | 33.96447 | -12.25808 | 37731 ft | 439 kts | 246° |
| 2026-04-30 00:52 | 33.94212 | -12.32652 | 37727 ft | 439 kts | 246° |
| 2026-04-30 00:52 | 33.91977 | -12.39486 | 37721 ft | 439 kts | 246° |
| 2026-04-30 00:53 | 33.89734 | -12.46326 | 37721 ft | 439 kts | 246° |
| 2026-04-30 00:53 | 33.87489 | -12.53162 | 37726 ft | 439 kts | 246° |
| 2026-04-30 00:54 | 33.85253 | -12.59956 | 37726 ft | 439 kts | 246° |
| 2026-04-30 00:54 | 33.82998 | -12.66793 | 37730 ft | 440 kts | 245° |
| 2026-04-30 00:55 | 33.80744 | -12.73618 | 37727 ft | 440 kts | 245° |
| 2026-04-30 00:55 | 33.77350 | -12.83869 | 37727 ft | 440 kts | 245° |
| 2026-04-30 00:56 | 33.75083 | -12.90698 | 37725 ft | 440 kts | 245° |
| 2026-04-30 00:56 | 33.72814 | -12.97519 | 37722 ft | 440 kts | 245° |
| 2026-04-30 00:57 | 33.70538 | -13.04343 | 37728 ft | 440 kts | 245° |
| 2026-04-30 00:57 | 33.68255 | -13.11167 | 37727 ft | 440 kts | 245° |
| 2026-04-30 00:58 | 33.65967 | -13.17987 | 37724 ft | 440 kts | 245° |
| 2026-04-30 00:58 | 33.63689 | -13.24751 | 37722 ft | 440 kts | 245° |
| 2026-04-30 00:59 | 33.61390 | -13.31559 | 37726 ft | 440 kts | 245° |
| 2026-04-30 00:59 | 33.59088 | -13.38354 | 37728 ft | 440 kts | 245° |
| 2026-04-30 01:00 | 33.56777 | -13.45151 | 37725 ft | 440 kts | 245° |
| 2026-04-30 01:00 | 33.54461 | -13.51947 | 37722 ft | 440 kts | 245° |
| 2026-04-30 01:01 | 33.52144 | -13.58733 | 37723 ft | 440 kts | 245° |
| 2026-04-30 01:01 | 33.49825 | -13.65509 | 37725 ft | 440 kts | 245° |
| 2026-04-30 01:02 | 33.47500 | -13.72283 | 37730 ft | 440 kts | 245° |
| 2026-04-30 01:02 | 33.45167 | -13.79056 | 37723 ft | 440 kts | 245° |
| 2026-04-30 01:03 | 33.42828 | -13.85824 | 37725 ft | 440 kts | 245° |
| 2026-04-30 01:03 | 33.40486 | -13.92581 | 37726 ft | 439 kts | 245° |
| 2026-04-30 01:04 | 33.38151 | -13.99293 | 37721 ft | 439 kts | 245° |
| 2026-04-30 01:04 | 33.35798 | -14.06041 | 37721 ft | 439 kts | 245° |
| 2026-04-30 01:05 | 33.33444 | -14.12776 | 37720 ft | 439 kts | 245° |
| 2026-04-30 01:05 | 33.31082 | -14.19520 | 37719 ft | 439 kts | 245° |
| 2026-04-30 01:06 | 33.28716 | -14.26253 | 37717 ft | 438 kts | 245° |
| 2026-04-30 01:06 | 33.26350 | -14.32970 | 37713 ft | 438 kts | 245° |
| 2026-04-30 01:07 | 33.24000 | -14.39634 | 37717 ft | 438 kts | 245° |
| 2026-04-30 01:07 | 33.21625 | -14.46348 | 37717 ft | 438 kts | 245° |
| 2026-04-30 01:08 | 33.19251 | -14.53044 | 37713 ft | 438 kts | 245° |
| 2026-04-30 01:08 | 33.16873 | -14.59733 | 37715 ft | 437 kts | 245° |
| 2026-04-30 01:09 | 33.14488 | -14.66420 | 37714 ft | 437 kts | 245° |
| 2026-04-30 01:09 | 33.12502 | -14.71972 | 37712 ft | 437 kts | 245° |
| 2026-04-30 01:10 | 33.09721 | -14.79719 | 37708 ft | 437 kts | 245° |
| 2026-04-30 01:10 | 33.07324 | -14.86379 | 37706 ft | 437 kts | 245° |
| 2026-04-30 01:11 | 33.05311 | -14.91953 | 37709 ft | 437 kts | 245° |
| 2026-04-30 01:11 | 33.02918 | -14.98559 | 37709 ft | 437 kts | 245° |
| 2026-04-30 01:12 | 33.00504 | -15.05199 | 37708 ft | 437 kts | 245° |
| 2026-04-30 01:12 | 32.98083 | -15.11829 | 37705 ft | 436 kts | 245° |
| 2026-04-30 01:13 | 32.95657 | -15.18454 | 37707 ft | 436 kts | 245° |
| 2026-04-30 01:13 | 32.93224 | -15.25077 | 37703 ft | 436 kts | 245° |
| 2026-04-30 01:14 | 32.90786 | -15.31688 | 37704 ft | 436 kts | 245° |
| 2026-04-30 01:14 | 32.88339 | -15.38299 | 37703 ft | 436 kts | 245° |
| 2026-04-30 01:15 | 32.85904 | -15.44854 | 37703 ft | 436 kts | 245° |
| 2026-04-30 01:15 | 32.83450 | -15.51436 | 37700 ft | 435 kts | 245° |
| 2026-04-30 01:16 | 32.80989 | -15.58014 | 37699 ft | 435 kts | 244° |
| 2026-04-30 01:16 | 32.78523 | -15.64582 | 37697 ft | 435 kts | 244° |
| 2026-04-30 01:17 | 32.76054 | -15.71137 | 37700 ft | 434 kts | 244° |
| 2026-04-30 01:17 | 32.73577 | -15.77688 | 37698 ft | 434 kts | 244° |
| 2026-04-30 01:18 | 32.71096 | -15.84224 | 37697 ft | 434 kts | 244° |
| 2026-04-30 01:18 | 32.68622 | -15.90717 | 37696 ft | 434 kts | 244° |
| 2026-04-30 01:19 | 32.66123 | -15.97248 | 37696 ft | 434 kts | 244° |
| 2026-04-30 01:19 | 32.63626 | -16.03763 | 37695 ft | 434 kts | 244° |
| 2026-04-30 01:20 | 32.61121 | -16.10270 | 37692 ft | 433 kts | 244° |
| 2026-04-30 01:20 | 32.58609 | -16.16767 | 37691 ft | 434 kts | 244° |
| 2026-04-30 01:21 | 32.56086 | -16.23259 | 37694 ft | 434 kts | 244° |
| 2026-04-30 01:21 | 32.53552 | -16.29744 | 37693 ft | 434 kts | 244° |
| 2026-04-30 01:22 | 32.51023 | -16.36188 | 37696 ft | 434 kts | 244° |
| 2026-04-30 01:22 | 32.48468 | -16.42663 | 37697 ft | 434 kts | 244° |
| 2026-04-30 01:23 | 32.45902 | -16.49133 | 37694 ft | 434 kts | 244° |
| 2026-04-30 01:23 | 32.43326 | -16.55590 | 37691 ft | 434 kts | 244° |
| 2026-04-30 01:24 | 32.40736 | -16.62040 | 37696 ft | 433 kts | 244° |
| 2026-04-30 01:24 | 32.38129 | -16.68484 | 37692 ft | 433 kts | 244° |
| 2026-04-30 01:25 | 32.35527 | -16.74866 | 37694 ft | 433 kts | 244° |
| 2026-04-30 01:25 | 32.32891 | -16.81286 | 37693 ft | 433 kts | 244° |
| 2026-04-30 01:26 | 32.30240 | -16.87693 | 37693 ft | 433 kts | 244° |
| 2026-04-30 01:26 | 32.27575 | -16.94088 | 37693 ft | 433 kts | 244° |
| 2026-04-30 01:27 | 32.24911 | -17.00434 | 37694 ft | 434 kts | 244° |
| 2026-04-30 01:27 | 32.22212 | -17.06809 | 37692 ft | 434 kts | 244° |
| 2026-04-30 01:28 | 32.19496 | -17.13177 | 37693 ft | 434 kts | 244° |
| 2026-04-30 01:28 | 32.16760 | -17.19534 | 37691 ft | 434 kts | 244° |
| 2026-04-30 01:29 | 32.14008 | -17.25877 | 37690 ft | 434 kts | 244° |
| 2026-04-30 01:29 | 32.11253 | -17.32178 | 37689 ft | 434 kts | 244° |
| 2026-04-30 01:30 | 32.08463 | -17.38501 | 37688 ft | 435 kts | 244° |
| 2026-04-30 01:30 | 32.05648 | -17.44817 | 37686 ft | 435 kts | 244° |
| 2026-04-30 01:31 | 32.02811 | -17.51117 | 37685 ft | 435 kts | 244° |
| 2026-04-30 01:31 | 31.99952 | -17.57397 | 37685 ft | 435 kts | 244° |
| 2026-04-30 01:32 | 31.97073 | -17.63663 | 37683 ft | 435 kts | 244° |
| 2026-04-30 01:32 | 31.94191 | -17.69875 | 37686 ft | 435 kts | 244° |
| 2026-04-30 01:33 | 31.91266 | -17.76115 | 37685 ft | 435 kts | 244° |
| 2026-04-30 01:33 | 31.88311 | -17.82340 | 37680 ft | 436 kts | 244° |
| 2026-04-30 01:34 | 31.85326 | -17.88556 | 37680 ft | 436 kts | 244° |
| 2026-04-30 01:34 | 31.82306 | -17.94762 | 37681 ft | 437 kts | 244° |
| 2026-04-30 01:35 | 31.79260 | -18.00948 | 37681 ft | 437 kts | 244° |
| 2026-04-30 01:35 | 31.76180 | -18.07120 | 37679 ft | 438 kts | 244° |
| 2026-04-30 01:36 | 31.73100 | -18.13236 | 37679 ft | 438 kts | 244° |
| 2026-04-30 01:36 | 31.69976 | -18.19374 | 37677 ft | 438 kts | 244° |
| 2026-04-30 01:37 | 31.66825 | -18.25498 | 37679 ft | 438 kts | 244° |
| 2026-04-30 01:37 | 31.63646 | -18.31613 | 37677 ft | 438 kts | 244° |
| 2026-04-30 01:38 | 31.60447 | -18.37706 | 37679 ft | 439 kts | 244° |
| 2026-04-30 01:38 | 31.57219 | -18.43783 | 37676 ft | 439 kts | 243° |
| 2026-04-30 01:39 | 31.53967 | -18.49851 | 37675 ft | 439 kts | 243° |
| 2026-04-30 01:39 | 31.50693 | -18.55901 | 37678 ft | 440 kts | 243° |
| 2026-04-30 01:40 | 31.47418 | -18.61905 | 37674 ft | 440 kts | 243° |
| 2026-04-30 01:40 | 31.44097 | -18.67939 | 37676 ft | 440 kts | 243° |
| 2026-04-30 01:41 | 31.40759 | -18.73959 | 37673 ft | 441 kts | 243° |
| 2026-04-30 01:41 | 31.37388 | -18.79985 | 37673 ft | 441 kts | 243° |
| 2026-04-30 01:42 | 31.34028 | -18.85947 | 37674 ft | 441 kts | 243° |
| 2026-04-30 01:42 | 31.30625 | -18.91939 | 37674 ft | 441 kts | 243° |
| 2026-04-30 01:43 | 31.27214 | -18.97899 | 37674 ft | 441 kts | 243° |
| 2026-04-30 01:43 | 31.23786 | -19.03839 | 37678 ft | 440 kts | 243° |
| 2026-04-30 01:44 | 31.20363 | -19.09728 | 37671 ft | 440 kts | 243° |
| 2026-04-30 01:44 | 31.16901 | -19.15638 | 37678 ft | 440 kts | 243° |
| 2026-04-30 01:45 | 31.13428 | -19.21520 | 37681 ft | 440 kts | 243° |
| 2026-04-30 01:45 | 31.09938 | -19.27391 | 37676 ft | 440 kts | 243° |
| 2026-04-30 01:46 | 31.06438 | -19.33242 | 37670 ft | 440 kts | 243° |
| 2026-04-30 01:46 | 31.02922 | -19.39081 | 37666 ft | 440 kts | 243° |
| 2026-04-30 01:47 | 30.99398 | -19.44900 | 37670 ft | 440 kts | 243° |
| 2026-04-30 01:47 | 30.95845 | -19.50727 | 37669 ft | 440 kts | 243° |
| 2026-04-30 01:48 | 30.92312 | -19.56493 | 37672 ft | 439 kts | 243° |
| 2026-04-30 01:48 | 30.88747 | -19.62274 | 37669 ft | 439 kts | 243° |
| 2026-04-30 01:49 | 30.85173 | -19.68045 | 37670 ft | 439 kts | 243° |
| 2026-04-30 01:49 | 30.81595 | -19.73792 | 37670 ft | 439 kts | 243° |
| 2026-04-30 01:50 | 30.78006 | -19.79530 | 37670 ft | 438 kts | 243° |
| 2026-04-30 01:50 | 30.74406 | -19.85259 | 37674 ft | 438 kts | 243° |
| 2026-04-30 01:51 | 30.70820 | -19.90941 | 37668 ft | 438 kts | 243° |
| 2026-04-30 01:51 | 30.67206 | -19.96643 | 37670 ft | 438 kts | 243° |
| 2026-04-30 01:52 | 30.63579 | -20.02345 | 37667 ft | 438 kts | 243° |
| 2026-04-30 01:52 | 30.59952 | -20.08027 | 37664 ft | 438 kts | 243° |
| 2026-04-30 01:53 | 30.56318 | -20.13698 | 37662 ft | 437 kts | 243° |
| 2026-04-30 01:53 | 30.52681 | -20.19354 | 37663 ft | 437 kts | 243° |
| 2026-04-30 01:54 | 30.49038 | -20.25001 | 37669 ft | 437 kts | 243° |
| 2026-04-30 01:54 | 30.45391 | -20.30634 | 37670 ft | 437 kts | 243° |
| 2026-04-30 01:55 | 30.41757 | -20.36228 | 37665 ft | 437 kts | 243° |
| 2026-04-30 01:55 | 30.38100 | -20.41853 | 37664 ft | 437 kts | 243° |
| 2026-04-30 01:56 | 30.34434 | -20.47483 | 37670 ft | 437 kts | 243° |
| 2026-04-30 01:56 | 30.30786 | -20.53076 | 37667 ft | 437 kts | 243° |
| 2026-04-30 01:57 | 30.27119 | -20.58694 | 37664 ft | 437 kts | 243° |
| 2026-04-30 01:57 | 30.23452 | -20.64306 | 37671 ft | 437 kts | 243° |
| 2026-04-30 01:58 | 30.20395 | -20.68976 | 37661 ft | 438 kts | 243° |
| 2026-04-30 01:58 | 30.16713 | -20.74595 | 37668 ft | 438 kts | 243° |
| 2026-04-30 01:59 | 30.11195 | -20.83016 | 37672 ft | 437 kts | 243° |
| 2026-04-30 02:00 | 30.07543 | -20.88591 | 37669 ft | 437 kts | 243° |
| 2026-04-30 02:00 | 30.03868 | -20.94198 | 37668 ft | 437 kts | 243° |
| 2026-04-30 02:01 | 30.00200 | -20.99796 | 37670 ft | 437 kts | 243° |
| 2026-04-30 02:01 | 29.96526 | -21.05394 | 37670 ft | 437 kts | 243° |
| 2026-04-30 02:02 | 29.92853 | -21.10980 | 37669 ft | 437 kts | 242° |
| 2026-04-30 02:02 | 29.89181 | -21.16571 | 37665 ft | 437 kts | 242° |
| 2026-04-30 02:03 | 29.85516 | -21.22158 | 37665 ft | 437 kts | 242° |
| 2026-04-30 02:03 | 29.81851 | -21.27743 | 37667 ft | 437 kts | 242° |
| 2026-04-30 02:04 | 29.78209 | -21.33287 | 37666 ft | 437 kts | 242° |
| 2026-04-30 02:04 | 29.74541 | -21.38873 | 37670 ft | 437 kts | 242° |
| 2026-04-30 02:05 | 29.70883 | -21.44446 | 37670 ft | 436 kts | 242° |
| 2026-04-30 02:05 | 29.67222 | -21.50027 | 37671 ft | 437 kts | 242° |
| 2026-04-30 02:06 | 29.63568 | -21.55605 | 37672 ft | 437 kts | 242° |
| 2026-04-30 02:06 | 29.59913 | -21.61189 | 37673 ft | 437 kts | 242° |
| 2026-04-30 02:07 | 29.56302 | -21.66705 | 37675 ft | 427 kts | 242° |
| 2026-04-30 02:07 | 29.52793 | -21.72029 | 37675 ft | 409 kts | 242° |
| 2026-04-30 02:08 | 29.49388 | -21.77099 | 37678 ft | 394 kts | 242° |
| 2026-04-30 02:08 | 29.46060 | -21.81973 | 37681 ft | 382 kts | 242° |
| 2026-04-30 02:09 | 29.42798 | -21.86682 | 37675 ft | 372 kts | 242° |
| 2026-04-30 02:09 | 29.39590 | -21.91257 | 37678 ft | 364 kts | 242° |
| 2026-04-30 02:10 | 29.36425 | -21.95721 | 37681 ft | 357 kts | 242° |
| 2026-04-30 02:10 | 29.33324 | -22.00056 | 37684 ft | 351 kts | 242° |
| 2026-04-30 02:11 | 29.30240 | -22.04331 | 37681 ft | 345 kts | 242° |
| 2026-04-30 02:11 | 29.27189 | -22.08532 | 37678 ft | 340 kts | 242° |
| 2026-04-30 02:11 | 29.25834 | -22.10633 | 37612 ft | 311 kts | 257° |
| 2026-04-30 02:12 | 29.25540 | -22.12849 | 37096 ft | 271 kts | 295° |
| 2026-04-30 02:12 | 29.26872 | -22.14318 | 34638 ft | 298 kts | 341° |
| 2026-04-30 02:12 | 29.29073 | -22.13989 | 27949 ft | 325 kts | 4° |
| 2026-04-30 02:12 | 29.30247 | -22.12306 | 16802 ft | 326 kts | 118° |
| 2026-04-30 02:13 | 29.27481 | -22.11488 | 9413 ft | 506 kts | 208° |
| 2026-04-30 02:13 | 29.26064 | -22.14635 | 6217 ft | 452 kts | 281° |
| 2026-04-30 02:13 | 29.27874 | -22.16501 | 127 ft | 118 kts | 322° |
| 2026-04-30 02:13 | 29.28157 | -22.16607 | -5 ft | 5 kts | 11° |